Rizokarpason, Cyprus
Current Conditions -  °F | °C
As of 10:50 PM on Thursday 18 Dec 2014 (Local Time) from LCEN Reporting Station
Few Clouds Few Clouds  
Wind Chill: 55°   Ceiling: Unl
Heat Index: 55°   Visibility: 6mi
Dew Point: 52°   Wind: 0mph
Humidity: 88%   Direction: NA
Pressure: 30"   Gusts: NA
Location:  35.58°N, 34.4°E
Report Text: LCEN 181950Z 00000KT 9999 FEW025 FEW030CB 13/11 Q1016 NOSIG
Loading
Personal Weather Stations






























Interactive Weather Map New forecast layout! Learn more

10-Day Weather Forecast

Advertisements
Track Severe Weather on mobile